Time;durP1;ratioP1;P1;durP2;ratioP2;P2;SDS_P1;SDS_P2;PMS_P1;PMS_P2;Temp;Humidity;BMP_temperature;BMP_pressure;BME280_temperature;BME280_humidity;BME280_pressure;Samples;Min_cycle;Max_cycle;Signal;HPM_P1;HPM_P2
2023/06/11 00:02:43;;;;;;;5.15;4.60;;;20.50;80.30;;;;;;6224721;28;20046;-84
2023/06/11 00:05:46;;;;;;;5.85;5.38;;;20.40;80.40;;;;;;6224792;28;20049;-85
2023/06/11 00:08:48;;;;;;;6.55;5.30;;;20.40;80.80;;;;;;6225588;28;20069;-84
2023/06/11 00:11:53;;;;;;;5.75;5.25;;;20.40;81.00;;;;;;6229755;28;20054;-85
2023/06/11 00:14:55;;;;;;;5.45;4.95;;;20.30;81.30;;;;;;6230753;28;20054;-84
2023/06/11 00:17:56;;;;;;;6.50;5.03;;;20.30;81.60;;;;;;6229917;28;20365;-84
2023/06/11 00:20:59;;;;;;;7.15;5.78;;;20.30;81.90;;;;;;6230332;28;20054;-84
2023/06/11 00:24:01;;;;;;;8.25;5.82;;;20.30;82.10;;;;;;6232079;28;20060;-85
2023/06/11 00:27:05;;;;;;;6.05;5.43;;;20.20;82.30;;;;;;6229968;28;20045;-84
2023/06/11 00:30:08;;;;;;;6.35;5.78;;;20.20;82.60;;;;;;6245527;28;20041;-84
2023/06/11 00:33:10;;;;;;;6.93;6.20;;;20.20;82.80;;;;;;6257957;28;20048;-84
2023/06/11 00:36:12;;;;;;;7.15;5.30;;;20.20;83.00;;;;;;6279742;28;20053;-85
2023/06/11 00:39:13;;;;;;;6.53;5.93;;;20.20;83.20;;;;;;6278919;28;20048;-84
2023/06/11 00:42:19;;;;;;;5.40;4.90;;;20.20;83.50;;;;;;6259240;28;20073;-83
2023/06/11 00:45:22;;;;;;;6.32;5.72;;;20.10;83.60;;;;;;6250015;28;20611;-85
2023/06/11 00:48:24;;;;;;;6.18;5.68;;;20.10;84.10;;;;;;6230708;28;20503;-84
2023/06/11 00:51:27;;;;;;;6.55;5.63;;;20.10;84.40;;;;;;6230389;28;20046;-85
2023/06/11 00:54:29;;;;;;;6.63;5.70;;;20.00;84.70;;;;;;6229432;28;20050;-85
2023/06/11 00:57:32;;;;;;;6.43;5.90;;;19.90;85.10;;;;;;6229555;28;20053;-83
2023/06/11 01:00:35;;;;;;;5.95;5.45;;;19.90;85.50;;;;;;6229303;28;20050;-84
2023/06/11 01:03:36;;;;;;;6.85;6.25;;;19.90;85.80;;;;;;6229507;28;20053;-84
2023/06/11 01:06:38;;;;;;;6.10;5.50;;;19.80;86.20;;;;;;6229389;28;20052;-84
2023/06/11 01:09:42;;;;;;;7.50;6.80;;;19.80;86.60;;;;;;6229465;28;20042;-85
2023/06/11 01:12:45;;;;;;;6.25;5.32;;;19.70;86.90;;;;;;6229430;28;20045;-84
2023/06/11 01:15:47;;;;;;;13.05;6.95;;;19.70;87.30;;;;;;6228505;28;20057;-85
2023/06/11 01:18:57;;;;;;;8.00;6.18;;;19.70;87.70;;;;;;6228827;28;20050;-84
2023/06/11 01:22:08;;;;;;;6.78;6.18;;;19.60;88.00;;;;;;6206704;28;20039;-85
2023/06/11 01:25:18;;;;;;;6.78;5.32;;;19.60;88.30;;;;;;6206726;28;20105;-84
2023/06/11 01:28:26;;;;;;;9.27;6.00;;;19.60;89.20;;;;;;6207093;28;20054;-85
2023/06/11 01:31:32;;;;;;;8.10;5.90;;;19.60;88.90;;;;;;6205097;28;20051;-84
2023/06/11 01:34:35;;;;;;;7.18;6.57;;;19.50;89.30;;;;;;6204337;28;20709;-85
2023/06/11 01:37:37;;;;;;;8.35;6.60;;;19.50;89.60;;;;;;6204928;28;20046;-83
2023/06/11 01:40:39;;;;;;;6.85;6.25;;;19.50;90.00;;;;;;6205492;28;20061;-85
2023/06/11 01:43:42;;;;;;;6.45;5.85;;;19.50;90.30;;;;;;6204004;28;20054;-85
2023/06/11 01:46:44;;;;;;;6.10;5.50;;;19.40;90.50;;;;;;6204910;28;20057;-83
2023/06/11 01:49:45;;;;;;;8.90;6.55;;;19.30;90.60;;;;;;6203217;28;20046;-84
2023/06/11 01:52:47;;;;;;;8.10;6.97;;;19.30;90.90;;;;;;6204401;28;20073;-84
2023/06/11 01:55:50;;;;;;;7.93;7.13;;;19.20;91.10;;;;;;6216628;28;20413;-83
2023/06/11 01:58:53;;;;;;;8.93;7.03;;;19.10;91.30;;;;;;6208320;28;20390;-84
2023/06/11 02:01:54;;;;;;;7.20;6.43;;;19.00;91.70;;;;;;6207277;28;20410;-82
2023/06/11 02:04:56;;;;;;;9.55;6.53;;;18.80;91.90;;;;;;6208079;28;20660;-83
2023/06/11 02:07:58;;;;;;;7.50;6.82;;;18.80;92.30;;;;;;6207848;28;20520;-84
2023/06/11 02:10:59;;;;;;;7.85;6.38;;;18.70;92.90;;;;;;6205786;28;20046;-84
2023/06/11 02:14:02;;;;;;;6.65;6.07;;;18.70;92.90;;;;;;6204893;28;20054;-85
2023/06/11 02:17:04;;;;;;;8.07;7.30;;;18.70;93.20;;;;;;6203781;28;20054;-84
2023/06/11 02:20:08;;;;;;;8.00;7.20;;;18.70;93.50;;;;;;6203142;28;20490;-83
2023/06/11 02:23:09;;;;;;;9.15;7.15;;;18.70;93.80;;;;;;6203024;28;20066;-82
2023/06/11 02:26:11;;;;;;;7.30;6.60;;;18.60;94.20;;;;;;6205529;28;20053;-83
2023/06/11 02:29:14;;;;;;;7.78;6.82;;;18.60;94.50;;;;;;6217244;28;20052;-82
2023/06/11 02:32:16;;;;;;;8.27;7.43;;;18.50;94.80;;;;;;6230026;28;20046;-82
2023/06/11 02:35:17;;;;;;;7.97;7.28;;;18.60;95.20;;;;;;6229431;28;20060;-81
2023/06/11 02:38:19;;;;;;;8.50;7.68;;;18.60;95.50;;;;;;6227432;28;20421;-81
2023/06/11 02:41:21;;;;;;;8.40;7.63;;;18.60;96.10;;;;;;6228564;28;20046;-82
2023/06/11 02:44:24;;;;;;;8.18;7.50;;;18.60;96.10;;;;;;6227925;28;20045;-82
2023/06/11 02:47:25;;;;;;;6.90;6.28;;;18.50;96.30;;;;;;6226869;28;20133;-83
2023/06/11 02:50:27;;;;;;;8.63;7.82;;;18.50;96.50;;;;;;6231188;28;20050;-80
2023/06/11 02:53:29;;;;;;;8.90;8.13;;;18.50;96.70;;;;;;6228692;28;20041;-82
2023/06/11 02:56:30;;;;;;;8.40;7.70;;;18.60;97.00;;;;;;6228342;28;20057;-82
2023/06/11 02:59:33;;;;;;;8.40;7.63;;;18.40;97.30;;;;;;6227785;28;20424;-82
2023/06/11 03:02:35;;;;;;;7.50;6.82;;;18.40;97.40;;;;;;6227565;28;20042;-81
2023/06/11 03:05:37;;;;;;;9.35;7.45;;;18.40;97.70;;;;;;6227719;28;20042;-81
2023/06/11 03:08:38;;;;;;;8.82;7.93;;;18.40;98.00;;;;;;6227484;28;20050;-81
2023/06/11 03:11:40;;;;;;;8.48;7.68;;;18.40;98.10;;;;;;6227057;28;20046;-82
2023/06/11 03:14:43;;;;;;;8.07;7.32;;;18.40;98.30;;;;;;6226638;28;20053;-82
2023/06/11 03:17:45;;;;;;;8.65;7.85;;;18.40;98.50;;;;;;6227083;28;20038;-81
2023/06/11 03:20:46;;;;;;;9.43;7.72;;;18.40;98.70;;;;;;6228240;28;20516;-82
2023/06/11 03:23:48;;;;;;;8.50;7.80;;;18.40;98.80;;;;;;6227529;28;20501;-80
2023/06/11 03:26:50;;;;;;;8.93;7.35;;;18.50;98.90;;;;;;6212698;28;20043;-81
2023/06/11 03:29:53;;;;;;;8.85;7.70;;;18.40;99.00;;;;;;6201838;28;20050;-81
2023/06/11 03:32:54;;;;;;;7.90;7.20;;;18.40;99.10;;;;;;6204493;28;20508;-81
2023/06/11 03:35:56;;;;;;;9.00;8.10;;;18.50;99.20;;;;;;6205570;28;20528;-82
2023/06/11 03:38:58;;;;;;;8.82;7.35;;;18.50;99.30;;;;;;6205301;28;20061;-81
2023/06/11 03:41:59;;;;;;;8.45;7.65;;;18.50;99.30;;;;;;6204243;28;20050;-82
2023/06/11 03:45:02;;;;;;;8.18;7.28;;;18.50;99.40;;;;;;6207095;28;20050;-81
2023/06/11 03:48:05;;;;;;;9.68;8.35;;;18.50;99.40;;;;;;6210165;28;20046;-81
2023/06/11 03:51:07;;;;;;;7.85;7.20;;;18.50;99.50;;;;;;6209645;28;20057;-83
2023/06/11 03:54:09;;;;;;;8.63;7.88;;;18.60;99.60;;;;;;6209832;28;20046;-82
2023/06/11 03:57:12;;;;;;;9.10;8.23;;;18.60;99.50;;;;;;6209805;28;20058;-82
2023/06/11 04:00:16;;;;;;;8.52;7.72;;;18.70;99.40;;;;;;6208725;28;20050;-82
2023/06/11 04:03:18;;;;;;;10.60;8.43;;;18.70;99.50;;;;;;6209737;28;20589;-82
2023/06/11 04:06:20;;;;;;;8.90;8.10;;;18.80;99.60;;;;;;6208053;28;20058;-81
2023/06/11 04:09:23;;;;;;;8.60;7.82;;;18.80;99.70;;;;;;6208541;28;20046;-83
2023/06/11 04:12:26;;;;;;;9.10;8.20;;;18.70;99.80;;;;;;6211164;28;20493;-82
2023/06/11 04:15:29;;;;;;;10.05;8.27;;;19.00;99.90;;;;;;6208569;28;20065;-82
2023/06/11 04:18:30;;;;;;;7.15;6.53;;;19.20;99.90;;;;;;6207140;28;20049;-81
2023/06/11 04:21:32;;;;;;;6.68;6.05;;;19.80;99.90;;;;;;6207775;28;20061;-82
2023/06/11 04:24:34;;;;;;;6.85;6.13;;;20.50;99.20;;;;;;6207593;28;20623;-82
2023/06/11 04:27:36;;;;;;;6.90;6.20;;;21.00;97.60;;;;;;6221358;28;20046;-82
2023/06/11 04:30:39;;;;;;;5.50;5.00;;;21.40;96.40;;;;;;6231902;28;20065;-82
2023/06/11 04:33:41;;;;;;;6.78;6.28;;;21.50;96.10;;;;;;6231776;28;20041;-80
2023/06/11 04:36:43;;;;;;;6.55;5.95;;;22.00;95.80;;;;;;6232573;28;20113;-82
2023/06/11 04:39:45;;;;;;;6.68;6.07;;;22.60;94.50;;;;;;6230029;28;20046;-82
2023/06/11 04:42:46;;;;;;;7.03;6.43;;;23.20;93.00;;;;;;6231457;28;20042;-83
2023/06/11 04:45:55;;;;;;;6.55;5.93;;;23.60;91.60;;;;;;6231002;28;20476;-83
2023/06/11 04:48:59;;;;;;;6.22;5.63;;;24.20;90.40;;;;;;6230380;28;20054;-83
2023/06/11 04:52:02;;;;;;;5.97;5.43;;;24.80;87.60;;;;;;6231383;28;20050;-83
2023/06/11 04:55:04;;;;;;;6.43;5.85;;;25.10;84.90;;;;;;6230637;28;20053;-83
2023/06/11 04:58:07;;;;;;;6.65;4.82;;;25.40;82.90;;;;;;6229563;28;20057;-83
2023/06/11 05:01:12;;;;;;;6.00;4.90;;;25.90;80.70;;;;;;6230781;28;20088;-82
2023/06/11 05:04:14;;;;;;;6.15;5.55;;;26.50;78.00;;;;;;6231273;28;20137;-83
2023/06/11 05:07:17;;;;;;;5.75;5.15;;;27.10;75.40;;;;;;6230134;28;20552;-81
2023/06/11 05:10:18;;;;;;;5.70;5.05;;;27.60;73.00;;;;;;6230296;28;20104;-83
2023/06/11 05:13:24;;;;;;;6.60;5.28;;;27.80;71.30;;;;;;6229897;28;20046;-82
2023/06/11 05:16:28;;;;;;;5.60;4.57;;;27.90;70.20;;;;;;6228580;28;20046;-83
2023/06/11 05:19:30;;;;;;;4.80;4.40;;;28.30;69.00;;;;;;6228476;28;20081;-83
2023/06/11 05:22:32;;;;;;;5.30;4.90;;;28.70;68.50;;;;;;6207786;28;20046;-82
2023/06/11 05:25:35;;;;;;;5.00;4.50;;;29.20;66.40;;;;;;6206341;28;20053;-83
2023/06/11 05:28:37;;;;;;;5.00;4.60;;;29.70;64.60;;;;;;6206737;28;20130;-82
2023/06/11 05:31:40;;;;;;;5.07;4.57;;;29.80;63.30;;;;;;6204586;28;20395;-82
2023/06/11 05:34:43;;;;;;;5.32;4.80;;;30.00;62.60;;;;;;6204736;28;20046;-82
2023/06/11 05:37:45;;;;;;;4.82;4.50;;;30.40;61.00;;;;;;6204373;28;20483;-82
2023/06/11 05:40:46;;;;;;;5.05;4.65;;;30.00;60.50;;;;;;6205103;28;20065;-83
2023/06/11 05:43:48;;;;;;;5.85;4.70;;;29.90;60.60;;;;;;6204167;28;20045;-83
2023/06/11 05:46:51;;;;;;;5.38;4.78;;;30.10;60.30;;;;;;6205274;28;20522;-82
2023/06/11 05:49:53;;;;;;;5.18;4.78;;;30.20;59.50;;;;;;6204091;28;20045;-83
2023/06/11 05:52:54;;;;;;;5.00;4.60;;;30.40;59.50;;;;;;6204915;28;20047;-82
2023/06/11 05:55:56;;;;;;;5.28;4.68;;;30.80;58.50;;;;;;6205418;28;20140;-80
2023/06/11 05:58:58;;;;;;;6.22;4.35;;;30.90;57.80;;;;;;6204520;28;20089;-81
2023/06/11 06:02:01;;;;;;;5.93;4.50;;;31.00;56.90;;;;;;6204281;28;20468;-83
2023/06/11 06:05:03;;;;;;;5.57;4.40;;;30.80;56.80;;;;;;6204576;28;20050;-82
2023/06/11 06:08:05;;;;;;;7.32;4.55;;;30.60;56.80;;;;;;6203929;28;20069;-82
2023/06/11 06:11:07;;;;;;;5.88;4.65;;;30.70;56.90;;;;;;6202978;28;20054;-82
2023/06/11 06:14:08;;;;;;;5.20;4.80;;;31.00;56.40;;;;;;6204219;28;20050;-84
2023/06/11 06:17:11;;;;;;;6.60;4.88;;;31.10;56.20;;;;;;6203909;28;20413;-83
2023/06/11 06:20:13;;;;;;;5.88;5.28;;;31.30;56.00;;;;;;6204411;28;20505;-82
2023/06/11 06:23:15;;;;;;;5.45;4.78;;;31.50;55.50;;;;;;6203803;28;20049;-83
2023/06/11 06:26:17;;;;;;;5.00;4.63;;;31.40;55.50;;;;;;6220411;28;20149;-84
2023/06/11 06:29:19;;;;;;;6.20;4.47;;;31.70;55.40;;;;;;6227373;28;20073;-84
2023/06/11 06:32:22;;;;;;;5.85;5.35;;;31.90;54.40;;;;;;6228224;28;20049;-83
2023/06/11 06:35:24;;;;;;;7.38;5.45;;;31.80;54.40;;;;;;6227478;28;20054;-82
2023/06/11 06:38:25;;;;;;;5.72;5.22;;;31.70;54.50;;;;;;6227196;28;20052;-83
2023/06/11 06:41:27;;;;;;;5.57;5.07;;;31.70;53.70;;;;;;6208701;28;20072;-83
2023/06/11 06:44:29;;;;;;;5.15;4.63;;;31.50;54.80;;;;;;6243786;28;20041;-81
2023/06/11 06:47:32;;;;;;;5.03;4.13;;;31.80;54.90;;;;;;6253809;28;20527;-82
2023/06/11 06:50:33;;;;;;;4.82;4.43;;;32.40;54.00;;;;;;6245731;28;20038;-82
2023/06/11 06:53:35;;;;;;;5.55;4.90;;;31.60;53.30;;;;;;6250068;28;20049;-82
2023/06/11 06:56:37;;;;;;;6.13;5.57;;;30.30;55.30;;;;;;6251146;28;20088;-82
2023/06/11 06:59:39;;;;;;;6.18;5.65;;;29.00;57.30;;;;;;6249976;28;20053;-82
2023/06/11 07:02:42;;;;;;;7.15;5.45;;;28.20;59.30;;;;;;6250827;28;20060;-81
2023/06/11 07:05:44;;;;;;;8.85;5.82;;;27.50;60.70;;;;;;6250340;28;20045;-82
2023/06/11 07:08:46;;;;;;;6.18;5.57;;;27.00;61.80;;;;;;6251068;28;20045;-81
2023/06/11 07:11:48;;;;;;;6.38;5.43;;;26.60;62.80;;;;;;6250552;28;20065;-82
2023/06/11 07:14:50;;;;;;;5.68;5.20;;;26.30;63.90;;;;;;6250330;28;20041;-83
2023/06/11 07:17:53;;;;;;;6.07;5.53;;;26.20;64.40;;;;;;6250223;28;20041;-81
2023/06/11 07:20:54;;;;;;;6.28;5.43;;;26.10;65.20;;;;;;6250905;28;20056;-83
2023/06/11 07:23:57;;;;;;;6.35;4.80;;;26.10;65.10;;;;;;6252035;28;20057;-82
2023/06/11 07:26:59;;;;;;;5.82;5.35;;;26.00;65.40;;;;;;6247931;28;20077;-82
2023/06/11 07:30:00;;;;;;;6.20;5.70;;;26.20;65.80;;;;;;6255517;28;20049;-81
2023/06/11 07:33:05;;;;;;;6.35;5.75;;;26.50;65.60;;;;;;6252557;28;20496;-81
2023/06/11 07:36:07;;;;;;;5.60;5.10;;;26.40;64.80;;;;;;6250807;28;20045;-82
2023/06/11 07:39:08;;;;;;;5.72;5.22;;;26.10;65.10;;;;;;6250381;28;20492;-82
2023/06/11 07:42:10;;;;;;;8.40;6.07;;;26.00;65.50;;;;;;6250185;28;20041;-81
2023/06/11 07:45:12;;;;;;;5.93;5.43;;;26.10;65.70;;;;;;6249858;28;20672;-81
2023/06/11 07:48:15;;;;;;;5.53;5.03;;;26.00;65.70;;;;;;6250567;28;20045;-82
2023/06/11 07:51:20;;;;;;;5.60;5.10;;;26.10;65.70;;;;;;6249666;28;20457;-80
2023/06/11 07:54:21;;;;;;;7.45;5.93;;;26.10;65.80;;;;;;6252023;28;20049;-81
2023/06/11 07:57:23;;;;;;;6.13;5.50;;;26.10;66.10;;;;;;6250821;28;20045;-82
2023/06/11 08:00:25;;;;;;;7.28;5.43;;;26.20;66.20;;;;;;6240690;28;20053;-81
2023/06/11 08:03:28;;;;;;;5.55;5.05;;;26.20;65.80;;;;;;6247860;28;20044;-82
2023/06/11 08:06:33;;;;;;;7.60;4.82;;;26.30;66.10;;;;;;6247992;28;20072;-83
2023/06/11 08:09:35;;;;;;;5.90;5.40;;;26.30;66.00;;;;;;6249597;28;20055;-84
2023/06/11 08:12:37;;;;;;;10.13;9.23;;;26.40;65.80;;;;;;6245345;28;20578;-80
2023/06/11 08:15:39;;;;;;;7.82;6.05;;;26.50;65.30;;;;;;6246214;28;20487;-81
2023/06/11 08:18:42;;;;;;;6.97;6.25;;;26.80;66.00;;;;;;6245952;28;20052;-82
2023/06/11 08:21:46;;;;;;;6.28;5.15;;;27.00;65.80;;;;;;6246153;28;20380;-84
2023/06/11 08:24:48;;;;;;;6.80;6.20;;;27.30;65.70;;;;;;6247440;28;20049;-82
2023/06/11 08:27:50;;;;;;;6.32;5.82;;;27.50;65.30;;;;;;6246645;28;20060;-83
2023/06/11 08:30:52;;;;;;;6.47;5.88;;;27.60;65.00;;;;;;6249522;28;20076;-82
2023/06/11 08:33:55;;;;;;;8.43;5.50;;;27.60;64.70;;;;;;6251561;28;20049;-81
2023/06/11 08:36:58;;;;;;;6.30;5.70;;;27.50;64.70;;;;;;6249365;28;20057;-83
2023/06/11 08:39:59;;;;;;;7.00;6.00;;;27.40;64.90;;;;;;6249526;28;20057;-83
2023/06/11 08:43:01;;;;;;;6.95;5.47;;;27.50;64.90;;;;;;6246092;28;20056;-80
2023/06/11 08:46:03;;;;;;;6.75;5.18;;;27.60;64.80;;;;;;6245769;28;20500;-80
2023/06/11 08:49:08;;;;;;;6.00;5.43;;;27.70;64.20;;;;;;6245751;28;20539;-80
2023/06/11 08:52:11;;;;;;;5.38;4.88;;;27.70;63.90;;;;;;6245494;28;20057;-80
2023/06/11 08:55:14;;;;;;;6.13;5.53;;;27.80;63.20;;;;;;6245339;28;20033;-80
2023/06/11 08:58:16;;;;;;;5.93;5.35;;;27.80;63.10;;;;;;6251515;28;20079;-83
2023/06/11 09:01:22;;;;;;;5.50;5.10;;;28.40;63.50;;;;;;6247455;28;20419;-80
2023/06/11 09:04:25;;;;;;;5.72;4.90;;;29.40;61.40;;;;;;6249354;28;20045;-80
2023/06/11 09:07:27;;;;;;;5.70;5.03;;;30.00;60.00;;;;;;6249622;28;20427;-80
2023/06/11 09:10:29;;;;;;;6.30;5.22;;;30.80;58.70;;;;;;6248504;28;20052;-80
2023/06/11 09:13:30;;;;;;;5.95;5.35;;;31.50;57.00;;;;;;6252382;28;20050;-82
2023/06/11 09:16:39;;;;;;;6.30;5.70;;;32.10;55.90;;;;;;6252370;28;20064;-81
2023/06/11 09:19:43;;;;;;;5.75;5.25;;;32.40;54.40;;;;;;6250543;28;20052;-82
2023/06/11 09:22:46;;;;;;;5.22;4.45;;;32.40;53.60;;;;;;6249560;28;20049;-82
2023/06/11 09:25:48;;;;;;;5.88;5.30;;;32.80;53.20;;;;;;6249882;28;20124;-80
2023/06/11 09:28:53;;;;;;;5.63;5.03;;;32.90;52.30;;;;;;6246987;28;20046;-79
2023/06/11 09:32:02;;;;;;;5.55;5.05;;;32.40;51.60;;;;;;6248861;28;20187;-80
2023/06/11 09:35:08;;;;;;;5.55;4.25;;;31.60;52.20;;;;;;6248479;28;20565;-80
2023/06/11 09:38:15;;;;;;;5.60;5.03;;;31.40;53.00;;;;;;6250231;28;20380;-81
2023/06/11 09:41:17;;;;;;;;;;;31.50;52.00;;;;;;6247541;28;20126;-80
2023/06/11 09:44:19;;;;;;;11.55;5.07;;;31.80;52.10;;;;;;6245928;28;19921;-80
2023/06/11 09:47:21;;;;;;;5.68;4.47;;;31.70;50.90;;;;;;6249784;28;20075;-80
2023/06/11 09:50:26;;;;;;;5.22;4.82;;;31.30;50.70;;;;;;6252444;28;20373;-80
2023/06/11 09:53:29;;;;;;;5.03;4.63;;;31.20;50.00;;;;;;6249034;28;20064;-80
2023/06/11 09:56:32;;;;;;;5.22;4.65;;;31.40;49.60;;;;;;6250577;28;20101;-80
2023/06/11 09:59:35;;;;;;;4.63;4.25;;;31.20;48.80;;;;;;6249659;28;20539;-80
2023/06/11 10:02:38;;;;;;;4.68;4.28;;;31.20;48.80;;;;;;6247165;28;20056;-80
2023/06/11 10:05:41;;;;;;;4.68;4.15;;;31.20;49.20;;;;;;6250308;28;20053;-80
2023/06/11 10:08:48;;;;;;;9.38;4.38;;;31.40;48.50;;;;;;6248360;28;20048;-79
2023/06/11 10:11:50;;;;;;;4.68;4.32;;;31.80;48.20;;;;;;6256320;28;20048;-81
2023/06/11 10:14:52;;;;;;;4.97;3.75;;;31.90;47.40;;;;;;6255482;28;20127;-80
2023/06/11 10:17:55;;;;;;;4.90;4.05;;;31.70;47.10;;;;;;6254066;28;20107;-80
2023/06/11 10:21:00;;;;;;;7.80;4.72;;;31.60;47.00;;;;;;6260413;28;20049;-80
2023/06/11 10:24:02;;;;;;;5.90;4.45;;;31.40;47.40;;;;;;6257600;28;20062;-82
2023/06/11 10:27:08;;;;;;;4.35;3.95;;;31.40;46.70;;;;;;6254974;28;20436;-78
2023/06/11 10:30:11;;;;;;;4.78;4.07;;;31.00;46.00;;;;;;6252514;28;20037;-80
2023/06/11 10:33:12;;;;;;;6.38;4.93;;;30.70;46.70;;;;;;6247186;28;20396;-79
2023/06/11 10:36:26;;;;;;;6.10;4.75;;;30.70;46.80;;;;;;6252165;28;20056;-79
2023/06/11 10:39:27;;;;;;;5.07;4.15;;;30.80;46.90;;;;;;6246824;28;20128;-78
2023/06/11 10:42:43;;;;;;;11.30;4.75;;;31.00;46.50;;;;;;6248085;28;20531;-78
2023/06/11 10:45:44;;;;;;;6.47;4.28;;;31.00;46.30;;;;;;6253014;28;20033;-79
2023/06/11 10:48:51;;;;;;;4.88;4.47;;;31.00;45.60;;;;;;6250560;28;20045;-79
2023/06/11 10:51:55;;;;;;;5.55;3.72;;;31.20;45.30;;;;;;6249728;28;20045;-78
2023/06/11 10:54:58;;;;;;;4.13;3.83;;;31.40;44.70;;;;;;6246775;28;20416;-80
2023/06/11 10:58:01;;;;;;;4.72;4.18;;;31.50;44.30;;;;;;6249194;28;20049;-77
2023/06/11 11:01:06;;;;;;;4.35;3.95;;;31.70;44.30;;;;;;6251766;28;20049;-79
2023/06/11 11:04:08;;;;;;;11.02;4.47;;;31.70;43.10;;;;;;6247455;28;20053;-77
2023/06/11 11:07:11;;;;;;;4.75;4.05;;;31.70;43.10;;;;;;6253085;28;20052;-79
2023/06/11 11:10:15;;;;;;;6.60;4.32;;;31.80;42.80;;;;;;6245781;28;20184;-78
2023/06/11 11:13:17;;;;;;;3.63;3.42;;;31.50;42.60;;;;;;6248854;28;20186;-77
2023/06/11 11:16:20;;;;;;;6.20;3.78;;;31.50;43.20;;;;;;6249527;28;20045;-77
2023/06/11 11:19:24;;;;;;;4.55;4.15;;;31.70;42.70;;;;;;6250348;28;20041;-79
2023/06/11 11:22:29;;;;;;;4.85;4.03;;;31.70;42.20;;;;;;6247644;28;20079;-78
2023/06/11 11:25:32;;;;;;;4.28;3.88;;;31.80;41.90;;;;;;6246946;28;20049;-78
2023/06/11 11:28:34;;;;;;;4.10;3.72;;;31.80;41.50;;;;;;6244689;28;20164;-78
2023/06/11 11:31:36;;;;;;;4.55;4.15;;;31.50;41.30;;;;;;6244204;28;20045;-79
2023/06/11 11:34:40;;;;;;;4.43;3.97;;;31.40;41.20;;;;;;6249722;28;20365;-78
2023/06/11 11:37:45;;;;;;;4.90;3.60;;;31.40;41.30;;;;;;6246580;28;20052;-77
2023/06/11 11:40:54;;;;;;;7.03;4.15;;;31.90;41.20;;;;;;6246770;28;20065;-77
2023/06/11 11:43:56;;;;;;;5.68;3.97;;;32.30;40.10;;;;;;6247341;28;20463;-78
2023/06/11 11:46:58;;;;;;;4.90;3.60;;;32.70;39.70;;;;;;6245912;28;20049;-76
2023/06/11 11:50:00;;;;;;;4.45;3.40;;;33.10;38.90;;;;;;6249087;28;20049;-79
2023/06/11 11:53:05;;;;;;;4.47;3.70;;;33.00;37.80;;;;;;6248451;28;20064;-79
2023/06/11 11:56:07;;;;;;;7.20;4.60;;;32.90;37.10;;;;;;6246345;28;20133;-79
2023/06/11 11:59:17;;;;;;;5.05;3.80;;;32.70;36.30;;;;;;6251037;28;20045;-81
2023/06/11 12:02:19;;;;;;;6.68;3.75;;;32.30;36.00;;;;;;6251807;28;20041;-80
2023/06/11 12:05:20;;;;;;;5.97;3.25;;;32.00;35.80;;;;;;6249388;28;20045;-81
2023/06/11 12:08:23;;;;;;;3.83;3.53;;;31.90;36.10;;;;;;6254144;28;20056;-81
2023/06/11 12:11:25;;;;;;;7.18;3.28;;;32.20;36.40;;;;;;6252140;28;20064;-79
2023/06/11 12:14:27;;;;;;;4.35;3.42;;;32.60;35.80;;;;;;6254768;28;20060;-81
2023/06/11 12:17:28;;;;;;;4.47;3.45;;;32.80;35.00;;;;;;6252720;28;20056;-80
2023/06/11 12:20:30;;;;;;;4.85;3.38;;;32.60;34.60;;;;;;6251805;28;20060;-82
2023/06/11 12:23:33;;;;;;;5.68;3.70;;;32.80;34.90;;;;;;6253962;28;20111;-81
2023/06/11 12:26:35;;;;;;;5.38;3.53;;;32.90;34.80;;;;;;6252404;28;20053;-78
2023/06/11 12:29:36;;;;;;;6.13;3.28;;;33.10;34.20;;;;;;6247864;28;20041;-81
2023/06/11 12:32:39;;;;;;;3.60;3.30;;;33.10;33.80;;;;;;6249260;28;20053;-81
2023/06/11 12:35:43;;;;;;;4.70;3.63;;;33.00;33.90;;;;;;6255707;28;20502;-82
2023/06/11 12:38:46;;;;;;;8.60;5.55;;;33.10;34.90;;;;;;6248775;28;20049;-81
2023/06/11 12:41:47;;;;;;;3.95;3.55;;;33.40;35.10;;;;;;6255451;28;20056;-80
2023/06/11 12:44:50;;;;;;;6.18;3.92;;;33.70;35.00;;;;;;6254495;28;20053;-81
2023/06/11 12:47:52;;;;;;;4.03;3.53;;;33.70;35.10;;;;;;6256763;28;20045;-82
2023/06/11 12:50:53;;;;;;;4.57;4.18;;;33.40;35.00;;;;;;6255686;28;20052;-81
2023/06/11 12:53:56;;;;;;;5.78;4.20;;;33.00;35.30;;;;;;6255499;28;20052;-81
2023/06/11 12:56:58;;;;;;;5.97;3.90;;;33.00;35.40;;;;;;6254617;28;20060;-81
2023/06/11 13:00:00;;;;;;;4.70;4.20;;;33.00;35.40;;;;;;6254713;28;20065;-81
2023/06/11 13:03:01;;;;;;;5.40;4.05;;;33.20;35.40;;;;;;6246671;28;20045;-81
2023/06/11 13:06:04;;;;;;;7.35;3.88;;;33.30;35.00;;;;;;6246914;28;20515;-79
2023/06/11 13:09:07;;;;;;;5.30;3.55;;;33.60;35.00;;;;;;6246185;28;20416;-80
2023/06/11 13:12:10;;;;;;;7.25;3.53;;;33.70;35.60;;;;;;6250158;28;20057;-80
2023/06/11 13:15:12;;;;;;;6.63;3.78;;;33.70;34.50;;;;;;6248514;28;20120;-80
2023/06/11 13:18:14;;;;;;;5.10;4.35;;;33.40;34.50;;;;;;6245577;28;20041;-80
2023/06/11 13:21:16;;;;;;;6.82;4.30;;;33.50;34.90;;;;;;6250400;28;20045;-80
2023/06/11 13:24:19;;;;;;;4.95;4.00;;;33.70;34.50;;;;;;6246842;28;20053;-80
2023/06/11 13:27:20;;;;;;;4.72;3.40;;;33.70;34.80;;;;;;6249297;28;20063;-80
2023/06/11 13:30:22;;;;;;;5.95;3.67;;;33.60;34.70;;;;;;6243712;28;20514;-80
2023/06/11 13:33:24;;;;;;;3.60;3.30;;;33.50;34.70;;;;;;6250063;28;20052;-79
2023/06/11 13:36:26;;;;;;;4.82;3.85;;;33.60;34.90;;;;;;6246963;28;20045;-79
2023/06/11 13:39:29;;;;;;;5.90;4.50;;;33.60;34.70;;;;;;6246327;28;20044;-79
2023/06/11 13:42:31;;;;;;;5.65;4.30;;;33.40;34.80;;;;;;6248355;28;20050;-79
2023/06/11 13:45:32;;;;;;;4.82;4.10;;;33.50;34.90;;;;;;6252242;28;20060;-79
2023/06/11 13:48:34;;;;;;;7.05;4.07;;;33.70;34.60;;;;;;6246259;28;20053;-78
2023/06/11 13:51:36;;;;;;;5.53;4.07;;;33.70;34.40;;;;;;6245585;28;20076;-79
2023/06/11 13:54:42;;;;;;;4.88;3.85;;;33.80;34.60;;;;;;6249423;28;20061;-78
2023/06/11 13:57:44;;;;;;;3.83;3.53;;;33.70;34.80;;;;;;6245882;28;20102;-79
2023/06/11 14:00:45;;;;;;;4.25;3.85;;;33.60;34.80;;;;;;6249120;28;20480;-79
2023/06/11 14:03:47;;;;;;;4.85;4.45;;;33.50;34.80;;;;;;6245774;28;20512;-79
2023/06/11 14:06:49;;;;;;;6.53;3.60;;;33.60;35.10;;;;;;6244264;28;20049;-80
2023/06/11 14:09:52;;;;;;;3.72;3.42;;;33.90;34.60;;;;;;6245951;28;20060;-79
2023/06/11 14:12:53;;;;;;;5.70;4.25;;;34.00;34.60;;;;;;6247574;28;20069;-79
2023/06/11 14:15:56;;;;;;;5.68;3.90;;;34.10;34.70;;;;;;6246987;28;20041;-79
2023/06/11 14:18:58;;;;;;;10.57;4.43;;;33.70;34.60;;;;;;6251484;28;20053;-80
2023/06/11 14:21:59;;;;;;;6.72;6.05;;;33.50;35.40;;;;;;6250139;28;20416;-78
2023/06/11 14:25:03;;;;;;;6.38;4.28;;;33.40;35.50;;;;;;6248981;28;20072;-77
2023/06/11 14:28:05;;;;;;;7.72;4.55;;;33.50;35.10;;;;;;6253350;28;20420;-79
2023/06/11 14:31:07;;;;;;;6.35;4.40;;;33.40;34.80;;;;;;6250109;28;20045;-79
2023/06/11 14:34:08;;;;;;;5.22;3.95;;;33.20;34.90;;;;;;6250273;28;20394;-79
2023/06/11 14:37:11;;;;;;;6.85;4.93;;;33.10;35.00;;;;;;6249856;28;20527;-79
2023/06/11 14:40:14;;;;;;;6.28;4.70;;;32.90;34.90;;;;;;6253171;28;20117;-81
2023/06/11 14:43:15;;;;;;;5.70;4.63;;;32.80;35.30;;;;;;6255404;28;20048;-81
2023/06/11 14:46:17;;;;;;;5.53;4.60;;;32.70;35.30;;;;;;6259220;28;20041;-81
2023/06/11 14:49:20;;;;;;;7.00;4.50;;;32.90;35.30;;;;;;6251077;28;20062;-80
2023/06/11 14:52:22;;;;;;;5.05;4.57;;;33.00;35.30;;;;;;6253494;28;20472;-80
2023/06/11 14:55:27;;;;;;;4.63;4.22;;;32.90;35.50;;;;;;6252920;28;20053;-81
2023/06/11 14:58:29;;;;;;;4.40;4.07;;;33.00;35.90;;;;;;6249396;28;20054;-81
2023/06/11 15:01:31;;;;;;;5.10;4.45;;;33.30;35.60;;;;;;6255069;28;20040;-79
2023/06/11 15:04:32;;;;;;;4.30;3.95;;;33.30;35.70;;;;;;6251623;28;20052;-79
2023/06/11 15:07:34;;;;;;;4.28;3.88;;;33.40;35.40;;;;;;6245532;28;20061;-80
2023/06/11 15:10:37;;;;;;;5.35;4.93;;;33.10;35.40;;;;;;6250112;28;20052;-79
2023/06/11 15:13:40;;;;;;;7.28;4.20;;;32.90;35.30;;;;;;6251912;28;20041;-81
2023/06/11 15:16:43;;;;;;;8.82;4.03;;;32.70;35.60;;;;;;6253489;28;20041;-80
2023/06/11 15:19:45;;;;;;;5.95;4.22;;;33.00;35.80;;;;;;6251093;28;20041;-81
2023/06/11 15:22:47;;;;;;;5.85;4.45;;;33.20;35.60;;;;;;6252185;28;20057;-81
2023/06/11 15:25:50;;;;;;;5.80;3.75;;;33.20;35.40;;;;;;6254912;28;20340;-80
2023/06/11 15:28:52;;;;;;;5.43;4.30;;;33.10;35.70;;;;;;6252939;28;20052;-80
2023/06/11 15:31:56;;;;;;;4.90;4.25;;;33.00;35.30;;;;;;6254576;28;20057;-80
2023/06/11 15:34:57;;;;;;;7.47;5.13;;;33.10;35.50;;;;;;6255510;28;20052;-78
2023/06/11 15:38:00;;;;;;;7.78;4.57;;;32.90;35.40;;;;;;6255569;28;20049;-78
2023/06/11 15:41:03;;;;;;;5.30;4.80;;;32.90;35.40;;;;;;6251297;28;20053;-79
2023/06/11 15:44:05;;;;;;;6.53;5.03;;;33.00;35.40;;;;;;6250853;28;20053;-81
2023/06/11 15:47:07;;;;;;;5.22;4.72;;;33.00;35.00;;;;;;6246908;28;20076;-80
2023/06/11 15:50:10;;;;;;;6.18;4.22;;;32.60;35.20;;;;;;6247324;28;20420;-81
2023/06/11 15:53:11;;;;;;;4.40;4.00;;;32.40;35.30;;;;;;6249969;28;20049;-80